Hull, United Kingdom
Current Conditions -  °F | °C
As of 6:50 PM on Friday 31 Oct 2014 (Local Time) from EGXV Reporting Station
Clear Clear  
Wind Chill: 64°   Ceiling: Unl
Heat Index: 64°   Visibility: 6mi
Dew Point: 55°   Wind: 13mph
Humidity: 73%   Direction: 190°S
Pressure: 29.83"   Gusts: NA
Location:  53.74°N, 0.34°W
Report Text: EGXV 311850Z AUTO 19011KT 9999 NCD 18/13 Q1010
Loading
Personal Weather Stations






























Interactive Weather Map
Tropical Storm Tracking
New forecast layout! Learn more

10-Day Weather Forecast

Advertisements
Track Severe Weather on mobile